Time;durP1;ratioP1;P1;durP2;ratioP2;P2;SDS_P1;SDS_P2;PMS_P1;PMS_P2;Temp;Humidity;BMP_temperature;BMP_pressure;BME280_temperature;BME280_humidity;BME280_pressure;Samples;Min_cycle;Max_cycle;Signal;HPM_P1;HPM_P2
2021/06/26 00:01:10;;;;;;;9.02;8.02;;;;;;;21.60;67.35;98999.41;5051649;28;20052;-56
2021/06/26 00:03:35;;;;;;;12.02;8.45;;;;;;;21.58;67.42;99001.63;5050708;28;20059;-58
2021/06/26 00:06:01;;;;;;;14.85;9.25;;;;;;;21.55;67.52;98997.66;5050439;28;20506;-59
2021/06/26 00:08:28;;;;;;;15.70;8.60;;;;;;;21.57;67.66;99004.66;5050369;28;20045;-56
2021/06/26 00:10:54;;;;;;;9.60;8.70;;;;;;;21.59;67.50;99014.03;5051827;28;20049;-59
2021/06/26 00:13:20;;;;;;;13.30;9.02;;;;;;;21.59;67.72;99000.53;5051559;28;20040;-57
2021/06/26 00:15:47;;;;;;;14.70;9.07;;;;;;;21.56;67.95;99003.88;5051817;28;20083;-58
2021/06/26 00:18:13;;;;;;;11.75;8.98;;;;;;;21.59;67.88;99005.94;5050427;28;20478;-58
2021/06/26 00:20:39;;;;;;;13.90;11.23;;;;;;;21.60;67.81;99004.03;5050173;28;20079;-57
2021/06/26 00:23:05;;;;;;;18.50;12.45;;;;;;;21.58;67.76;99004.31;5051003;28;20029;-58
2021/06/26 00:25:31;;;;;;;18.83;12.82;;;;;;;21.58;67.85;98998.13;5051749;28;20498;-56
2021/06/26 00:27:57;;;;;;;18.48;12.77;;;;;;;21.54;68.04;99001.47;5050293;28;20106;-58
2021/06/26 00:30:23;;;;;;;17.45;14.00;;;;;;;21.50;68.10;98991.63;5051654;28;20406;-57
2021/06/26 00:32:49;;;;;;;18.92;14.32;;;;;;;21.51;68.33;98996.72;5050171;28;20041;-58
2021/06/26 00:35:15;;;;;;;17.55;13.60;;;;;;;21.51;67.96;98991.34;5051715;28;20406;-57
2021/06/26 00:37:41;;;;;;;18.15;12.50;;;;;;;21.52;68.21;98984.81;5051373;28;20057;-57
2021/06/26 00:40:09;;;;;;;12.32;10.73;;;;;;;21.52;68.21;98982.13;5051697;28;20438;-58
2021/06/26 00:42:36;;;;;;;12.13;10.35;;;;;;;21.53;68.20;98981.03;5051462;28;20041;-58
2021/06/26 00:45:05;;;;;;;12.13;10.32;;;;;;;21.54;68.22;98988.00;5049874;28;20045;-57
2021/06/26 00:47:30;;;;;;;12.15;10.93;;;;;;;21.56;68.09;98990.38;5033242;28;20044;-58
2021/06/26 00:49:58;;;;;;;16.80;11.30;;;;;;;21.46;68.39;98963.75;5050994;28;20124;-57
2021/06/26 00:52:24;;;;;;;11.02;8.75;;;;;;;21.47;68.36;98960.75;5049854;28;20053;-58
2021/06/26 00:54:50;;;;;;;14.90;9.32;;;;;;;21.47;68.52;98958.03;5033636;28;20406;-57
2021/06/26 00:57:16;;;;;;;10.95;8.77;;;;;;;21.49;68.52;98963.09;5050152;28;20504;-59
2021/06/26 00:59:42;;;;;;;15.18;8.75;;;;;;;21.49;68.65;98968.50;5049809;28;20112;-58
2021/06/26 01:02:10;;;;;;;13.95;9.52;;;;;;;21.48;68.61;98967.69;5051014;28;20503;-58
2021/06/26 01:04:36;;;;;;;12.40;8.95;;;;;;;21.53;68.56;98969.44;5016822;28;20041;-58
2021/06/26 01:07:02;;;;;;;11.75;8.23;;;;;;;21.57;68.66;98980.38;5051007;28;20037;-58
2021/06/26 01:09:28;;;;;;;13.68;8.88;;;;;;;21.63;68.57;98984.50;5049863;28;20053;-58
2021/06/26 01:11:58;;;;;;;9.82;7.93;;;;;;;21.69;68.26;98969.72;5050731;28;20094;-59
2021/06/26 01:14:28;;;;;;;13.00;8.20;;;;;;;21.75;68.31;98981.94;5051017;28;20045;-57
2021/06/26 01:16:54;;;;;;;11.38;8.60;;;;;;;21.75;68.16;98973.84;5049914;28;20387;-60
2021/06/26 01:19:20;;;;;;;13.93;8.90;;;;;;;21.81;68.01;98974.47;5050824;28;20052;-57
2021/06/26 01:21:52;;;;;;;13.95;9.13;;;;;;;21.95;67.57;98972.34;5050979;28;20052;-57
2021/06/26 01:24:19;;;;;;;13.45;8.88;;;;;;;22.10;67.13;98965.63;5049633;28;20077;-56
2021/06/26 01:26:44;;;;;;;14.50;8.77;;;;;;;22.29;66.45;98962.56;5050625;28;20091;-58
2021/06/26 01:29:11;;;;;;;16.95;8.80;;;;;;;22.55;65.75;98963.19;5050813;28;20049;-58
2021/06/26 01:31:38;;;;;;;12.52;8.38;;;;;;;22.84;64.65;98959.66;5049624;28;20045;-57
2021/06/26 01:34:04;;;;;;;12.15;8.52;;;;;;;22.94;64.30;98953.06;5049599;28;20052;-58
2021/06/26 01:36:31;;;;;;;18.73;8.93;;;;;;;22.97;63.95;98947.06;5053143;28;20044;-57
2021/06/26 01:38:58;;;;;;;20.73;9.55;;;;;;;22.90;64.14;98952.94;5054813;28;20050;-58
2021/06/26 01:41:29;;;;;;;14.88;10.30;;;;;;;22.76;64.93;98947.00;5054299;28;20143;-58
2021/06/26 01:43:54;;;;;;;22.13;9.80;;;;;;;22.75;65.47;98950.06;5054518;28;20037;-58
2021/06/26 01:46:20;;;;;;;18.80;10.65;;;;;;;22.93;64.57;98942.59;5054301;28;20056;-57
2021/06/26 01:48:46;;;;;;;21.63;10.70;;;;;;;23.28;63.46;98952.03;5053119;28;20064;-59
2021/06/26 01:51:12;;;;;;;22.95;11.93;;;;;;;23.61;62.47;98945.03;5052892;28;20056;-58
2021/06/26 01:53:38;;;;;;;20.15;11.65;;;;;;;23.75;61.76;98940.94;5053159;28;20051;-58
2021/06/26 01:56:04;;;;;;;16.52;11.35;;;;;;;23.92;61.34;98948.06;5052890;28;20045;-57
2021/06/26 01:58:30;;;;;;;16.90;12.15;;;;;;;24.17;61.04;98940.72;5053135;28;20037;-58
2021/06/26 02:00:56;;;;;;;17.42;11.60;;;;;;;24.64;59.94;98937.56;5052656;28;20549;-58
2021/06/26 02:03:22;;;;;;;15.45;11.30;;;;;;;25.20;57.82;98941.50;5054271;28;20045;-57
2021/06/26 02:05:48;;;;;;;18.90;11.65;;;;;;;25.65;56.43;98943.06;5054238;28;20376;-58
2021/06/26 02:08:14;;;;;;;14.82;10.85;;;;;;;26.14;55.51;98942.75;5052606;28;20069;-56
2021/06/26 02:10:39;;;;;;;17.48;9.82;;;;;;;26.31;54.84;98942.41;5053782;28;20049;-59
2021/06/26 02:13:05;;;;;;;16.20;9.80;;;;;;;26.19;55.13;98940.56;5054029;28;20406;-58
2021/06/26 02:15:31;;;;;;;16.13;9.63;;;;;;;25.90;55.31;98949.94;5053813;28;20041;-58
2021/06/26 02:17:57;;;;;;;19.70;9.43;;;;;;;25.63;56.30;98943.44;5054290;28;20505;-57
2021/06/26 02:20:23;;;;;;;15.50;9.13;;;;;;;25.36;56.50;98940.41;5052160;28;20049;-58
2021/06/26 02:22:48;;;;;;;20.08;9.95;;;;;;;25.33;56.84;98937.59;5053648;28;20045;-59
2021/06/26 02:25:18;;;;;;;14.38;8.70;;;;;;;25.20;57.04;98936.84;5052484;28;20037;-58
2021/06/26 02:27:43;;;;;;;16.30;8.68;;;;;;;25.07;57.60;98946.94;5053881;28;20045;-58
2021/06/26 02:30:10;;;;;;;16.00;8.98;;;;;;;24.95;57.51;98944.28;5053906;28;20063;-59
2021/06/26 02:32:38;;;;;;;17.38;8.52;;;;;;;24.86;57.54;98944.41;5053524;28;20136;-58
2021/06/26 02:35:04;;;;;;;19.65;8.45;;;;;;;24.88;58.00;98942.16;5053648;28;20044;-58
2021/06/26 02:37:30;;;;;;;22.48;8.82;;;;;;;24.90;57.83;98934.44;5053441;28;20061;-58
2021/06/26 02:39:56;;;;;;;16.65;10.10;;;;;;;24.91;58.33;98938.75;5052225;28;20036;-58
2021/06/26 02:42:22;;;;;;;18.42;9.43;;;;;;;24.88;58.17;98942.16;5052067;28;20612;-58
2021/06/26 02:44:48;;;;;;;19.40;9.98;;;;;;;24.90;58.68;98948.00;5052167;28;20425;-58
2021/06/26 02:47:14;;;;;;;18.33;8.80;;;;;;;24.97;58.77;98952.03;5052645;28;20052;-58
2021/06/26 02:49:40;;;;;;;11.93;8.35;;;;;;;25.30;57.00;98955.34;5053478;28;20048;-58
2021/06/26 02:52:06;;;;;;;21.23;9.48;;;;;;;25.42;56.40;98946.38;5051885;28;20056;-59
2021/06/26 02:54:33;;;;;;;14.48;8.32;;;;;;;25.73;55.50;98937.47;5053354;28;20102;-59
2021/06/26 02:56:59;;;;;;;11.00;7.43;;;;;;;25.79;54.96;98946.94;5053071;28;20106;-59
2021/06/26 02:59:24;;;;;;;15.88;8.10;;;;;;;26.17;53.93;98940.13;5051855;28;20041;-58
2021/06/26 03:01:50;;;;;;;20.67;8.88;;;;;;;26.56;52.90;98945.72;5051528;28;20473;-58
2021/06/26 03:04:16;;;;;;;18.15;8.25;;;;;;;27.06;51.35;98952.22;5053355;28;20041;-59
2021/06/26 03:06:42;;;;;;;20.63;8.25;;;;;;;27.50;50.31;98943.75;5053079;28;20136;-59
2021/06/26 03:09:07;;;;;;;19.50;8.60;;;;;;;27.57;49.68;98924.81;5052962;28;20037;-57
2021/06/26 03:11:33;;;;;;;12.75;7.72;;;;;;;27.52;49.68;98949.59;5052783;28;20048;-57
2021/06/26 03:13:59;;;;;;;12.93;7.85;;;;;;;27.24;50.65;98949.06;5053033;28;20098;-58
2021/06/26 03:16:25;;;;;;;14.15;7.80;;;;;;;27.54;49.96;98954.69;5052867;28;20513;-58
2021/06/26 03:18:50;;;;;;;13.73;8.00;;;;;;;28.01;48.69;98948.94;5052462;28;20053;-58
2021/06/26 03:21:16;;;;;;;13.13;7.38;;;;;;;28.44;47.33;98946.91;5051239;28;20053;-58
2021/06/26 03:23:43;;;;;;;13.50;7.72;;;;;;;28.90;46.46;98946.72;5052620;28;20052;-57
2021/06/26 03:26:09;;;;;;;14.10;7.78;;;;;;;28.80;46.52;98944.66;5052670;28;20072;-58
2021/06/26 03:28:35;;;;;;;14.60;7.57;;;;;;;28.72;46.89;98942.97;5051098;28;20052;-58
2021/06/26 03:31:02;;;;;;;16.50;7.72;;;;;;;28.98;46.20;98953.84;5051115;28;20453;-58
2021/06/26 03:33:28;;;;;;;14.70;7.65;;;;;;;29.47;45.06;98948.53;5052579;28;20049;-58
2021/06/26 03:35:54;;;;;;;9.98;7.00;;;;;;;29.45;45.31;98946.19;5052197;28;20049;-59
2021/06/26 03:38:20;;;;;;;14.02;6.68;;;;;;;29.36;45.54;98945.72;5052151;28;20049;-58
2021/06/26 03:40:46;;;;;;;9.52;7.03;;;;;;;29.61;44.58;98948.69;5052081;28;20044;-59
2021/06/26 03:43:12;;;;;;;13.13;8.15;;;;;;;29.30;45.11;98949.94;5052411;28;20123;-57
2021/06/26 03:45:38;;;;;;;12.77;7.97;;;;;;;29.11;45.75;98946.22;5052337;28;20044;-57
2021/06/26 03:48:04;;;;;;;10.23;7.30;;;;;;;29.05;45.86;98949.66;5051015;28;20037;-57
2021/06/26 03:50:33;;;;;;;11.00;7.13;;;;;;;29.09;46.29;98961.38;5034240;28;20048;-57
2021/06/26 03:52:58;;;;;;;12.55;7.53;;;;;;;29.16;46.61;98967.72;5050704;28;20041;-57
2021/06/26 03:55:24;;;;;;;15.10;7.97;;;;;;;29.35;45.77;98931.25;5051721;28;20572;-58
2021/06/26 03:57:50;;;;;;;12.80;7.05;;;;;;;29.95;45.05;98959.56;5050701;28;20052;-56
2021/06/26 04:00:16;;;;;;;17.35;7.72;;;;;;;30.03;44.30;98972.91;5051893;28;20513;-58
2021/06/26 04:02:42;;;;;;;12.38;7.10;;;;;;;30.05;43.73;98970.56;5051789;28;20462;-59
2021/06/26 04:05:08;;;;;;;8.88;6.97;;;;;;;29.86;43.37;98974.31;5052112;28;20124;-57
2021/06/26 04:07:34;;;;;;;8.57;6.80;;;;;;;29.72;44.20;98982.38;5051978;28;20080;-59
2021/06/26 04:10:00;;;;;;;8.27;7.20;;;;;;;29.58;44.60;98982.22;5033683;28;20126;-57
2021/06/26 04:12:26;;;;;;;13.70;10.57;;;;;;;29.27;46.48;98986.16;5051862;28;20047;-57
2021/06/26 04:14:51;;;;;;;11.30;8.43;;;;;;;29.00;46.87;98972.53;5051921;28;20052;-57
2021/06/26 04:17:17;;;;;;;11.75;7.85;;;;;;;28.90;47.02;98973.22;5050310;28;20051;-58
2021/06/26 04:19:43;;;;;;;13.02;7.55;;;;;;;29.31;46.33;98981.53;5051354;28;20052;-57
2021/06/26 04:22:09;;;;;;;13.45;7.40;;;;;;;29.73;45.94;98975.75;5050161;28;20049;-58
2021/06/26 04:24:34;;;;;;;11.73;8.32;;;;;;;29.94;45.65;98977.88;5051639;28;20041;-58
2021/06/26 04:27:00;;;;;;;9.98;7.97;;;;;;;30.18;45.65;98983.94;5050086;28;20045;-57
2021/06/26 04:29:26;;;;;;;13.73;7.93;;;;;;;30.44;44.90;98983.78;5051249;28;20414;-57
2021/06/26 04:31:52;;;;;;;15.40;7.90;;;;;;;30.69;44.34;98988.63;5051515;28;20053;-58
2021/06/26 04:34:18;;;;;;;11.30;7.97;;;;;;;30.83;43.86;98987.97;5051687;28;20437;-58
2021/06/26 04:36:44;;;;;;;9.60;7.20;;;;;;;30.96;43.44;98978.25;5051256;28;20651;-58
2021/06/26 04:39:10;;;;;;;10.73;8.02;;;;;;;31.08;43.04;98982.59;5051515;28;20106;-58
2021/06/26 04:41:37;;;;;;;12.25;7.93;;;;;;;31.17;42.95;98977.53;5049832;28;20465;-58
2021/06/26 04:44:06;;;;;;;13.90;7.97;;;;;;;31.32;42.60;98986.59;5051239;28;20068;-57
2021/06/26 04:46:32;;;;;;;13.65;7.55;;;;;;;31.19;43.19;98978.72;5051476;28;20080;-57
2021/06/26 04:48:58;;;;;;;12.65;8.27;;;;;;;31.02;43.76;98987.66;5051369;28;20083;-58
2021/06/26 04:51:24;;;;;;;10.60;7.60;;;;;;;30.81;44.02;98993.03;5051375;28;20060;-56
2021/06/26 04:53:50;;;;;;;12.82;8.48;;;;;;;30.59;44.83;98990.16;5051303;28;20470;-58
2021/06/26 04:56:16;;;;;;;9.13;7.35;;;;;;;30.61;44.27;98998.72;5051023;28;20469;-58
2021/06/26 04:58:41;;;;;;;8.45;7.35;;;;;;;30.52;44.67;98992.81;5051368;28;20048;-58
2021/06/26 05:01:07;;;;;;;11.93;7.80;;;;;;;30.93;43.74;98989.97;5049832;28;20410;-58
2021/06/26 05:03:33;;;;;;;12.27;7.50;;;;;;;31.29;43.11;98988.13;5051074;28;20048;-58
2021/06/26 05:06:00;;;;;;;11.95;7.15;;;;;;;31.45;42.61;98994.09;5050832;28;20136;-57
2021/06/26 05:08:26;;;;;;;10.32;7.80;;;;;;;31.58;42.41;98982.78;5051080;28;20044;-58
2021/06/26 05:10:52;;;;;;;13.85;7.60;;;;;;;31.73;41.79;98980.84;5053625;28;20045;-56
2021/06/26 05:13:18;;;;;;;11.10;7.28;;;;;;;31.69;42.33;98980.84;5054713;28;20076;-56
2021/06/26 05:15:44;;;;;;;9.25;7.22;;;;;;;31.57;42.15;98970.25;5054363;28;20144;-57
2021/06/26 05:18:10;;;;;;;11.52;7.50;;;;;;;31.44;42.37;98983.50;5054142;28;20079;-55
2021/06/26 05:20:40;;;;;;;13.90;7.68;;;;;;;31.34;42.18;98979.56;5052477;28;20060;-56
2021/06/26 05:23:16;;;;;;;10.38;7.40;;;;;;;31.26;42.60;98980.69;5054241;28;20045;-58
2021/06/26 05:25:42;;;;;;;11.32;8.05;;;;;;;31.14;42.56;98983.78;5054683;28;20506;-55
2021/06/26 05:28:08;;;;;;;13.57;8.60;;;;;;;30.99;43.22;98983.72;5054738;28;20091;-58
2021/06/26 05:30:34;;;;;;;11.93;7.93;;;;;;;30.89;44.06;98986.44;5053626;28;20522;-59
2021/06/26 05:33:00;;;;;;;13.30;7.93;;;;;;;30.73;44.46;98979.25;5054863;28;20087;-58
2021/06/26 05:35:26;;;;;;;15.68;8.35;;;;;;;30.62;44.43;98977.63;5053412;28;20056;-57
2021/06/26 05:37:52;;;;;;;12.57;8.20;;;;;;;30.50;44.61;98979.53;5054790;28;20045;-58
2021/06/26 05:40:18;;;;;;;12.02;8.40;;;;;;;30.35;45.27;98968.88;5053385;28;20044;-57
2021/06/26 05:42:43;;;;;;;14.15;8.20;;;;;;;30.21;45.40;98969.53;5054572;28;20076;-59
2021/06/26 05:45:09;;;;;;;14.55;8.57;;;;;;;30.13;45.94;98979.63;5054793;28;20106;-59
2021/06/26 05:47:36;;;;;;;10.90;8.00;;;;;;;30.03;46.26;98972.91;5054237;28;20473;-59
2021/06/26 05:50:02;;;;;;;11.35;7.78;;;;;;;29.94;46.27;98974.38;5054703;28;20113;-59
2021/06/26 05:52:28;;;;;;;12.35;8.93;;;;;;;29.89;46.08;98978.25;5052960;28;20084;-58
2021/06/26 05:54:54;;;;;;;11.18;8.48;;;;;;;29.70;46.58;98970.25;5054486;28;20072;-59
2021/06/26 05:57:20;;;;;;;14.80;8.65;;;;;;;29.60;46.60;98983.41;5054150;28;20589;-59
2021/06/26 05:59:46;;;;;;;13.75;8.88;;;;;;;29.50;46.45;98984.06;5054595;28;20345;-58
2021/06/26 06:02:15;;;;;;;12.38;9.02;;;;;;;29.34;46.77;98989.75;5052754;28;20076;-59
2021/06/26 06:04:41;;;;;;;13.57;8.35;;;;;;;29.17;46.66;98982.94;5054300;28;20045;-58
2021/06/26 06:07:08;;;;;;;10.25;7.70;;;;;;;29.10;46.47;98980.13;5053165;28;20410;-58
2021/06/26 06:09:34;;;;;;;12.10;7.60;;;;;;;29.11;46.25;98989.09;5054214;28;20041;-58
2021/06/26 06:12:00;;;;;;;9.48;7.38;;;;;;;29.14;46.17;98991.06;5052971;28;20045;-57
2021/06/26 06:14:26;;;;;;;15.55;7.75;;;;;;;29.15;46.05;98979.81;5053915;28;20033;-59
2021/06/26 06:16:52;;;;;;;11.57;6.65;;;;;;;29.18;45.80;98981.78;5053988;28;20409;-57
2021/06/26 06:19:18;;;;;;;11.82;7.57;;;;;;;29.22;45.82;98981.03;5053674;28;20422;-57
2021/06/26 06:21:44;;;;;;;9.80;7.13;;;;;;;29.20;46.43;98973.22;5052601;28;20052;-58
2021/06/26 06:24:10;;;;;;;12.00;7.85;;;;;;;29.23;46.56;98972.47;5052688;28;20119;-59
2021/06/26 06:26:35;;;;;;;10.48;7.80;;;;;;;29.10;46.53;98976.63;5053901;28;20075;-59
2021/06/26 06:29:01;;;;;;;11.40;6.30;;;;;;;29.12;44.80;98975.09;5053489;28;20442;-59
2021/06/26 06:31:27;;;;;;;12.02;6.85;;;;;;;29.11;44.37;98975.44;5053968;28;20049;-58
2021/06/26 06:33:53;;;;;;;7.40;6.38;;;;;;;29.08;44.95;98978.91;5052427;28;20040;-62
2021/06/26 06:36:18;;;;;;;11.90;6.68;;;;;;;29.13;45.46;98979.38;5053443;28;20045;-59
2021/06/26 06:38:44;;;;;;;9.30;6.65;;;;;;;29.16;44.71;98972.41;5035937;28;20076;-60
2021/06/26 06:41:10;;;;;;;14.45;8.65;;;;;;;29.17;47.62;98979.41;5051950;28;20422;-58
2021/06/26 06:43:36;;;;;;;10.57;8.50;;;;;;;29.08;47.27;98973.47;5053357;28;20045;-59
2021/06/26 06:46:05;;;;;;;12.05;9.15;;;;;;;29.06;48.00;98982.03;5053398;28;20075;-58
2021/06/26 06:48:32;;;;;;;13.03;8.37;;;;;;;29.07;47.55;98974.63;5053385;28;20037;-58
2021/06/26 06:50:58;;;;;;;13.70;8.65;;;;;;;28.97;48.03;98971.38;5053078;28;20121;-58
2021/06/26 06:53:24;;;;;;;13.52;8.63;;;;;;;29.14;48.10;98980.94;5053440;28;20461;-59
2021/06/26 06:55:53;;;;;;;9.00;8.10;;;;;;;29.19;46.72;98982.56;5052899;28;20136;-59
2021/06/26 06:58:19;;;;;;;11.87;7.87;;;;;;;29.16;45.69;98975.91;5052831;28;20526;-58
2021/06/26 07:00:45;;;;;;;8.45;7.47;;;;;;;29.23;45.55;98974.41;5052989;28;20071;-59
2021/06/26 07:03:11;;;;;;;9.23;6.22;;;;;;;29.32;44.12;98978.41;5052815;28;20047;-59
2021/06/26 07:05:36;;;;;;;10.60;6.60;;;;;;;29.34;42.92;98975.31;5052799;28;20127;-59
2021/06/26 07:08:02;;;;;;;7.85;6.00;;;;;;;29.38;42.54;98970.69;5052812;28;20041;-59
2021/06/26 07:10:29;;;;;;;8.27;5.45;;;;;;;29.46;41.67;98966.88;5053065;28;20106;-58
2021/06/26 07:12:55;;;;;;;7.65;5.75;;;;;;;29.50;42.13;98962.22;5052957;28;20083;-58
2021/06/26 07:15:21;;;;;;;7.47;5.95;;;;;;;29.55;41.62;98963.84;5053166;28;20441;-57
2021/06/26 07:17:47;;;;;;;9.60;5.90;;;;;;;29.52;41.72;98957.19;5052897;28;20076;-57
2021/06/26 07:20:13;;;;;;;9.75;5.70;;;;;;;29.57;41.24;98959.59;5052337;28;20045;-58
2021/06/26 07:22:39;;;;;;;6.82;5.45;;;;;;;29.64;41.04;98961.63;5052782;28;20410;-58
2021/06/26 07:25:05;;;;;;;8.55;5.35;;;;;;;29.70;40.31;98968.31;5051078;28;20044;-57
2021/06/26 07:27:31;;;;;;;10.93;4.70;;;;;;;29.72;39.53;98963.28;5052721;28;20047;-58
2021/06/26 07:29:57;;;;;;;9.13;5.35;;;;;;;29.62;38.99;98959.28;5052612;28;20041;-58
2021/06/26 07:32:23;;;;;;;10.43;4.80;;;;;;;29.61;39.25;98967.81;5052380;28;20055;-59
2021/06/26 07:34:48;;;;;;;7.60;5.10;;;;;;;29.68;39.05;98961.66;5052582;28;20036;-59
2021/06/26 07:37:14;;;;;;;10.27;5.07;;;;;;;29.75;39.46;98969.94;5052514;28;20094;-59
2021/06/26 07:39:40;;;;;;;10.02;5.53;;;;;;;29.70;40.03;98975.72;5052518;28;20494;-58
2021/06/26 07:42:07;;;;;;;9.10;5.95;;;;;;;29.66;40.11;98967.50;5052237;28;20045;-59
2021/06/26 07:44:33;;;;;;;10.43;5.10;;;;;;;29.75;39.56;98969.94;5052562;28;20064;-57
2021/06/26 07:46:58;;;;;;;8.43;5.22;;;;;;;29.74;39.90;98974.63;5052164;28;20049;-59
2021/06/26 07:49:25;;;;;;;8.10;5.53;;;;;;;29.77;40.26;98973.06;5052475;28;20037;-60
2021/06/26 07:51:50;;;;;;;9.52;5.18;;;;;;;29.75;40.19;98973.44;5050604;28;20454;-58
2021/06/26 07:54:17;;;;;;;9.32;5.70;;;;;;;29.82;40.58;98981.69;5052174;28;20405;-60
2021/06/26 07:56:46;;;;;;;10.13;4.78;;;;;;;29.80;37.82;98973.09;5050663;28;20048;-58
2021/06/26 07:59:12;;;;;;;8.63;4.60;;;;;;;29.80;38.28;98970.38;5051765;28;20049;-58
2021/06/26 08:01:38;;;;;;;7.18;5.10;;;;;;;29.85;38.94;98972.75;5051741;28;20045;-59
2021/06/26 08:04:04;;;;;;;10.30;5.32;;;;;;;29.84;39.16;98959.47;5051923;28;20040;-59
2021/06/26 08:06:30;;;;;;;8.00;5.60;;;;;;;29.89;39.31;98964.59;5051939;28;20049;-59
2021/06/26 08:08:56;;;;;;;7.32;5.32;;;;;;;29.92;39.26;98957.59;5050533;28;20127;-59
2021/06/26 08:11:22;;;;;;;11.32;4.93;;;;;;;29.97;39.24;98952.53;5051817;28;20148;-59
2021/06/26 08:13:49;;;;;;;14.35;6.00;;;;;;;30.03;39.10;98956.53;5051918;28;20060;-58
2021/06/26 08:16:15;;;;;;;7.65;5.60;;;;;;;30.02;39.45;98949.47;5051536;28;20128;-60
2021/06/26 08:18:41;;;;;;;9.77;5.25;;;;;;;29.95;40.06;98954.88;5051425;28;20132;-59
2021/06/26 08:21:07;;;;;;;10.10;5.07;;;;;;;29.99;39.05;98952.97;5051403;28;20053;-58
2021/06/26 08:23:33;;;;;;;8.27;5.22;;;;;;;29.91;39.67;98956.00;5051597;28;20056;-58
2021/06/26 08:26:00;;;;;;;7.57;5.00;;;;;;;29.95;39.48;98957.63;5051627;28;20107;-59
2021/06/26 08:28:26;;;;;;;6.82;4.85;;;;;;;29.93;39.52;98951.75;5051544;28;20041;-58
2021/06/26 08:30:52;;;;;;;6.50;4.75;;;;;;;29.84;38.71;98954.78;5050016;28;20045;-57
2021/06/26 08:33:18;;;;;;;8.27;4.72;;;;;;;29.85;38.58;98959.09;5051404;28;20557;-59
2021/06/26 08:35:44;;;;;;;9.20;5.07;;;;;;;29.87;39.25;98964.97;5050289;28;20049;-58
2021/06/26 08:38:09;;;;;;;11.10;5.57;;;;;;;29.93;39.50;98950.97;5051180;28;20151;-58
2021/06/26 08:40:35;;;;;;;6.45;5.25;;;;;;;29.95;39.55;98948.66;5050066;28;20119;-59
2021/06/26 08:43:01;;;;;;;10.70;5.00;;;;;;;29.97;39.92;98940.84;5049708;28;20575;-59
2021/06/26 08:45:27;;;;;;;8.43;5.50;;;;;;;29.99;40.54;98938.50;5051028;28;20052;-58
2021/06/26 08:47:55;;;;;;;8.93;5.00;;;;;;;30.01;39.07;98938.94;5050210;28;20174;-58
2021/06/26 08:50:23;;;;;;;7.28;5.28;;;;;;;29.99;40.09;98942.03;5050150;28;20505;-58
2021/06/26 08:52:49;;;;;;;7.90;4.70;;;;;;;30.04;37.97;98946.38;5033432;28;20060;-59
2021/06/26 08:55:15;;;;;;;7.20;5.10;;;;;;;30.11;38.62;98943.69;5051474;28;20040;-59
2021/06/26 08:57:43;;;;;;;9.48;5.10;;;;;;;30.21;38.96;98942.22;5050121;28;20047;-59
2021/06/26 09:00:11;;;;;;;10.05;4.97;;;;;;;30.18;39.30;98927.34;5051440;28;20048;-58
2021/06/26 09:02:37;;;;;;;9.90;5.45;;;;;;;30.21;39.43;98940.28;5050861;28;20044;-60
2021/06/26 09:05:04;;;;;;;11.63;5.57;;;;;;;30.21;39.47;98936.75;5051240;28;20098;-59
2021/06/26 09:07:40;;;;;;;10.13;5.75;;;;;;;30.23;40.61;98935.19;5051183;28;20465;-58
2021/06/26 09:10:12;;;;;;;8.18;5.25;;;;;;;30.27;38.64;98936.03;5050612;28;20561;-58
2021/06/26 09:12:38;;;;;;;5.43;4.20;;;;;;;30.23;37.01;98937.94;5050635;28;20507;-58
2021/06/26 09:15:06;;;;;;;7.63;4.30;;;;;;;30.22;37.05;98928.19;5050808;28;20041;-59
2021/06/26 09:17:33;;;;;;;9.00;5.63;;;;;;;30.21;36.79;98925.81;5050818;28;20068;-59
2021/06/26 09:20:03;;;;;;;5.95;4.40;;;;;;;30.26;36.44;98933.66;5050196;28;20500;-60
2021/06/26 09:22:44;;;;;;;5.22;4.25;;;;;;;30.29;36.62;98938.38;5050275;28;20056;-58
2021/06/26 09:25:38;;;;;;;13.23;4.55;;;;;;;30.32;36.79;98935.66;5050273;28;20052;-59
2021/06/26 09:28:08;;;;;;;7.53;4.38;;;;;;;30.32;36.64;98923.94;5050319;28;20067;-59
2021/06/26 09:30:42;;;;;;;6.55;4.85;;;;;;;30.34;36.28;98921.63;5050121;28;20040;-60
2021/06/26 09:33:20;;;;;;;7.85;4.20;;;;;;;30.36;36.74;98918.50;5050025;28;20048;-59
2021/06/26 09:36:07;;;;;;;8.77;4.28;;;;;;;30.35;36.96;98914.97;5050468;28;20045;-58
2021/06/26 09:38:35;;;;;;;6.13;4.20;;;;;;;30.39;36.97;98923.22;5050282;28;20037;-58
2021/06/26 09:41:14;;;;;;;7.20;4.18;;;;;;;30.41;36.05;98912.66;5049952;28;20126;-59
2021/06/26 09:43:40;;;;;;;6.30;3.70;;;;;;;30.41;36.04;98916.19;5050249;28;20037;-59
2021/06/26 09:46:12;;;;;;;6.00;4.03;;;;;;;30.37;36.25;98914.59;5049179;28;20060;-58
2021/06/26 09:48:59;;;;;;;6.95;4.10;;;;;;;30.38;37.62;98908.75;5050179;28;20040;-58
2021/06/26 09:51:32;;;;;;;6.15;4.47;;;;;;;30.43;36.92;98894.72;5032352;28;20154;-58
2021/06/26 09:54:00;;;;;;;7.90;3.95;;;;;;;30.55;36.45;98899.06;5050452;28;20394;-59
2021/06/26 09:56:47;;;;;;;4.78;4.25;;;;;;;30.52;36.70;98897.88;5050559;28;20060;-58
2021/06/26 09:59:17;;;;;;;6.50;4.38;;;;;;;30.51;36.44;98896.31;5053769;28;20049;-58
2021/06/26 10:01:44;;;;;;;10.13;4.32;;;;;;;30.45;36.35;98902.53;5053845;28;20609;-59
2021/06/26 10:04:14;;;;;;;4.80;4.30;;;;;;;30.41;36.82;98890.78;5053815;28;20172;-59
2021/06/26 10:06:44;;;;;;;5.30;4.18;;;;;;;30.31;36.42;98884.09;5035873;28;20067;-59
2021/06/26 10:09:10;;;;;;;5.25;4.38;;;;;;;30.30;36.76;98897.00;5053693;28;20087;-59
2021/06/26 10:11:37;;;;;;;8.55;4.88;;;;;;;30.37;36.94;98892.72;5053846;28;20052;-60
2021/06/26 10:14:04;;;;;;;7.25;4.55;;;;;;;30.40;36.99;98892.75;5053675;28;20047;-58
2021/06/26 10:16:30;;;;;;;7.70;4.70;;;;;;;30.40;37.98;98884.53;5053445;28;20040;-59
2021/06/26 10:19:01;;;;;;;6.97;4.10;;;;;;;30.44;36.88;98884.56;5053240;28;20110;-59
2021/06/26 10:21:28;;;;;;;8.63;4.82;;;;;;;30.42;36.56;98886.91;5052145;28;20040;-59
2021/06/26 10:23:55;;;;;;;8.77;5.03;;;;;;;30.42;36.45;98886.91;5053492;28;20513;-59
2021/06/26 10:26:24;;;;;;;7.13;4.82;;;;;;;30.47;36.40;98883.78;5052243;28;20125;-59
2021/06/26 10:28:54;;;;;;;11.55;5.15;;;;;;;30.43;36.48;98880.25;5053626;28;20503;-58
2021/06/26 10:31:36;;;;;;;9.13;5.00;;;;;;;30.33;36.35;98879.81;5053686;28;20045;-59
2021/06/26 10:34:10;;;;;;;7.93;5.22;;;;;;;30.33;36.65;98870.84;5053516;28;20041;-58
2021/06/26 10:36:36;;;;;;;7.50;4.68;;;;;;;30.32;36.82;98869.25;5053373;28;20045;-58
2021/06/26 10:39:14;;;;;;;7.18;4.75;;;;;;;30.38;36.61;98867.72;5053481;28;20099;-59
2021/06/26 10:41:40;;;;;;;8.02;5.07;;;;;;;30.44;36.24;98866.19;5053419;28;20114;-58
2021/06/26 10:44:07;;;;;;;6.15;4.75;;;;;;;30.43;36.77;98870.09;5053802;28;20041;-58
2021/06/26 10:46:33;;;;;;;6.75;4.97;;;;;;;30.43;36.64;98867.38;5053225;28;20071;-58
2021/06/26 10:49:05;;;;;;;6.75;5.20;;;;;;;30.35;36.97;98868.50;5051917;28;20045;-59
2021/06/26 10:51:36;;;;;;;7.72;5.20;;;;;;;30.30;36.65;98866.91;5035925;28;20175;-59
2021/06/26 10:54:16;;;;;;;9.13;4.88;;;;;;;30.35;36.59;98865.75;5053045;28;20048;-59
2021/06/26 10:56:45;;;;;;;7.95;5.35;;;;;;;30.43;36.88;98858.38;5053164;28;20139;-59
2021/06/26 10:59:12;;;;;;;;;;;;;;;30.48;37.20;98860.75;5053846;28;20041;-58
2021/06/26 11:01:38;;;;;;;8.20;5.38;;;;;;;30.54;37.25;98857.25;5053009;28;19947;-58
2021/06/26 11:04:09;;;;;;;11.32;6.32;;;;;;;30.62;37.04;98857.28;5051774;28;20127;-61
2021/06/26 11:06:36;;;;;;;8.57;5.82;;;;;;;30.68;36.93;98853.00;5052981;28;20045;-60
2021/06/26 11:09:10;;;;;;;7.68;5.53;;;;;;;30.74;37.18;98854.22;5052191;28;20044;-59
2021/06/26 11:11:41;;;;;;;12.05;6.40;;;;;;;30.80;36.81;98846.44;5051599;28;20098;-59
2021/06/26 11:14:09;;;;;;;7.68;5.95;;;;;;;30.81;36.68;98846.06;5051324;28;20040;-57
2021/06/26 11:16:35;;;;;;;11.65;6.60;;;;;;;30.81;36.74;98843.31;5052324;28;20045;-60
2021/06/26 11:19:01;;;;;;;12.30;6.25;;;;;;;30.80;36.93;98840.97;5034366;28;20067;-59
2021/06/26 11:21:27;;;;;;;10.18;6.25;;;;;;;30.81;37.18;98845.28;5052506;28;20155;-59
2021/06/26 11:23:53;;;;;;;7.75;5.60;;;;;;;30.88;37.60;98837.09;5052425;28;20529;-59
2021/06/26 11:26:19;;;;;;;9.40;6.20;;;;;;;30.91;37.40;98839.03;5050883;28;20127;-59